sensor_id;sensor_type;location;lat;lon;timestamp;pressure;altitude;pressure_sealevel;temperature;humidity
10466;BME280;5280;42.600;23.556;2023-04-01T00:00:28;92579.81;;;11.63;61.33
10466;BME280;5280;42.600;23.556;2023-04-01T00:02:55;92550.81;;;11.44;61.04
10466;BME280;5280;42.600;23.556;2023-04-01T00:05:21;92561.34;;;11.53;61.78
10466;BME280;5280;42.600;23.556;2023-04-01T00:07:52;92563.41;;;11.59;62.08
10466;BME280;5280;42.600;23.556;2023-04-01T00:10:19;92534.16;;;11.34;60.99
10466;BME280;5280;42.600;23.556;2023-04-01T00:12:46;92501.25;;;11.18;61.90
10466;BME280;5280;42.600;23.556;2023-04-01T00:15:14;92559.41;;;11.55;62.14
10466;BME280;5280;42.600;23.556;2023-04-01T00:17:41;92551.09;;;11.41;61.90
10466;BME280;5280;42.600;23.556;2023-04-01T00:20:08;92567.34;;;11.46;61.73
10466;BME280;5280;42.600;23.556;2023-04-01T00:22:35;92566.13;;;11.50;62.06
10466;BME280;5280;42.600;23.556;2023-04-01T00:25:04;92561.78;;;11.49;62.23
10466;BME280;5280;42.600;23.556;2023-04-01T00:27:31;92553.31;;;11.45;62.77
10466;BME280;5280;42.600;23.556;2023-04-01T00:29:58;92551.41;;;11.38;62.68
10466;BME280;5280;42.600;23.556;2023-04-01T00:32:26;92560.03;;;11.40;62.46
10466;BME280;5280;42.600;23.556;2023-04-01T00:34:53;92560.03;;;11.40;61.52
10466;BME280;5280;42.600;23.556;2023-04-01T00:37:20;92540.34;;;11.25;62.26
10466;BME280;5280;42.600;23.556;2023-04-01T00:39:48;92543.13;;;11.23;62.36
10466;BME280;5280;42.600;23.556;2023-04-01T00:42:14;92555.22;;;11.26;62.17
10466;BME280;5280;42.600;23.556;2023-04-01T00:44:42;92538.16;;;11.10;62.75
10466;BME280;5280;42.600;23.556;2023-04-01T00:47:09;92555.63;;;11.21;63.60
10466;BME280;5280;42.600;23.556;2023-04-01T00:49:41;92552.19;;;11.20;63.39
10466;BME280;5280;42.600;23.556;2023-04-01T00:52:11;92544.91;;;11.22;63.94
10466;BME280;5280;42.600;23.556;2023-04-01T00:54:41;92530.63;;;11.15;64.37
10466;BME280;5280;42.600;23.556;2023-04-01T00:57:13;92530.63;;;11.15;64.54
10466;BME280;5280;42.600;23.556;2023-04-01T00:59:42;92533.13;;;11.17;63.73
10466;BME280;5280;42.600;23.556;2023-04-01T01:02:14;92525.19;;;11.17;64.06
10466;BME280;5280;42.600;23.556;2023-04-01T01:04:42;92529.63;;;11.16;63.24
10466;BME280;5280;42.600;23.556;2023-04-01T01:07:20;92521.69;;;11.16;62.36
10466;BME280;5280;42.600;23.556;2023-04-01T01:09:57;92505.47;;;11.02;63.02
10466;BME280;5280;42.600;23.556;2023-04-01T01:12:35;92520.78;;;11.08;63.62
10466;BME280;5280;42.600;23.556;2023-04-01T01:15:11;92524.94;;;11.10;62.89
10466;BME280;5280;42.600;23.556;2023-04-01T01:17:45;92532.88;;;11.10;62.22
10466;BME280;5280;42.600;23.556;2023-04-01T01:23:43;92521.22;;;11.03;64.31
10466;BME280;5280;42.600;23.556;2023-04-01T01:26:39;92516.22;;;11.00;63.90
10466;BME280;5280;42.600;23.556;2023-04-01T01:29:13;92512.03;;;10.98;63.73
10466;BME280;5280;42.600;23.556;2023-04-01T01:31:50;92509.84;;;10.93;63.89
10466;BME280;5280;42.600;23.556;2023-04-01T01:34:23;92502.75;;;10.94;63.74
10466;BME280;5280;42.600;23.556;2023-04-01T01:36:59;92500.41;;;10.91;63.36
10466;BME280;5280;42.600;23.556;2023-04-01T01:39:30;92495.38;;;10.88;64.06
10466;BME280;5280;42.600;23.556;2023-04-01T01:42:02;92485.66;;;10.88;62.99
10466;BME280;5280;42.600;23.556;2023-04-01T01:44:30;92496.75;;;10.92;62.75
10466;BME280;5280;42.600;23.556;2023-04-01T01:46:59;92474.28;;;10.78;64.43
10466;BME280;5280;42.600;23.556;2023-04-01T01:49:27;92461.66;;;10.72;65.00
10466;BME280;5280;42.600;23.556;2023-04-01T01:51:57;92473.97;;;10.81;64.30
10466;BME280;5280;42.600;23.556;2023-04-01T01:54:24;92462.34;;;10.74;63.58
10466;BME280;5280;42.600;23.556;2023-04-01T01:56:54;92457.91;;;10.74;64.83
10466;BME280;5280;42.600;23.556;2023-04-01T01:59:22;92452.75;;;10.73;66.13
10466;BME280;5280;42.600;23.556;2023-04-01T02:01:53;92464.28;;;10.72;65.30
10466;BME280;5280;42.600;23.556;2023-04-01T02:04:22;92459.59;;;10.66;65.80
10466;BME280;5280;42.600;23.556;2023-04-01T02:06:54;92432.03;;;10.31;65.70
10466;BME280;5280;42.600;23.556;2023-04-01T02:09:24;92412.97;;;10.38;65.54
10466;BME280;5280;42.600;23.556;2023-04-01T02:11:53;92440.44;;;10.54;64.85
10466;BME280;5280;42.600;23.556;2023-04-01T02:14:23;92441.41;;;10.53;65.01
10466;BME280;5280;42.600;23.556;2023-04-01T02:16:54;92402.16;;;10.31;64.60
10466;BME280;5280;42.600;23.556;2023-04-01T02:19:26;92430.84;;;10.53;64.31
10466;BME280;5280;42.600;23.556;2023-04-01T02:21:57;92429.97;;;10.62;62.78
10466;BME280;5280;42.600;23.556;2023-04-01T02:24:28;92426.22;;;10.65;62.02
10466;BME280;5280;42.600;23.556;2023-04-01T02:26:58;92411.78;;;10.59;62.53
10466;BME280;5280;42.600;23.556;2023-04-01T02:29:25;92422.63;;;10.66;58.52
10466;BME280;5280;42.600;23.556;2023-04-01T02:31:53;92409.53;;;10.64;61.44
10466;BME280;5280;42.600;23.556;2023-04-01T02:34:21;92405.97;;;10.56;63.00
10466;BME280;5280;42.600;23.556;2023-04-01T02:36:50;92420.09;;;10.64;61.32
10466;BME280;5280;42.600;23.556;2023-04-01T02:39:18;92408.97;;;10.70;59.73
10466;BME280;5280;42.600;23.556;2023-04-01T02:41:46;92416.84;;;10.80;60.06
10466;BME280;5280;42.600;23.556;2023-04-01T02:44:14;92427.50;;;10.88;61.65
10466;BME280;5280;42.600;23.556;2023-04-01T02:46:41;92411.94;;;10.85;62.39
10466;BME280;5280;42.600;23.556;2023-04-01T02:49:08;92419.13;;;10.93;63.14
10466;BME280;5280;42.600;23.556;2023-04-01T02:51:35;92404.09;;;10.93;60.03
10466;BME280;5280;42.600;23.556;2023-04-01T02:54:02;92400.34;;;10.96;61.18
10466;BME280;5280;42.600;23.556;2023-04-01T02:56:29;92404.19;;;11.01;60.67
10466;BME280;5280;42.600;23.556;2023-04-01T02:58:57;92420.75;;;11.03;60.24
10466;BME280;5280;42.600;23.556;2023-04-01T03:01:24;92434.03;;;11.11;58.13
10466;BME280;5280;42.600;23.556;2023-04-01T03:03:51;92420.16;;;11.09;59.06
10466;BME280;5280;42.600;23.556;2023-04-01T03:06:18;92437.00;;;11.08;58.32
10466;BME280;5280;42.600;23.556;2023-04-01T03:08:45;92442.69;;;11.13;58.28
10466;BME280;5280;42.600;23.556;2023-04-01T03:11:12;92434.44;;;11.16;59.01
10466;BME280;5280;42.600;23.556;2023-04-01T03:13:38;92449.63;;;11.14;59.83
10466;BME280;5280;42.600;23.556;2023-04-01T03:16:07;92449.78;;;11.13;59.30
10466;BME280;5280;42.600;23.556;2023-04-01T03:18:33;92453.97;;;11.06;61.51
10466;BME280;5280;42.600;23.556;2023-04-01T03:21:12;92442.19;;;11.00;63.21
10466;BME280;5280;42.600;23.556;2023-04-01T03:23:39;92432.59;;;10.99;63.36
10466;BME280;5280;42.600;23.556;2023-04-01T03:26:06;92441.91;;;11.03;62.44
10466;BME280;5280;42.600;23.556;2023-04-01T03:28:33;92437.63;;;10.93;63.58
10466;BME280;5280;42.600;23.556;2023-04-01T03:31:00;92428.88;;;10.92;63.34
10466;BME280;5280;42.600;23.556;2023-04-01T03:33:28;92424.66;;;10.99;63.90
10466;BME280;5280;42.600;23.556;2023-04-01T03:35:55;92437.19;;;10.97;61.85
10466;BME280;5280;42.600;23.556;2023-04-01T03:38:22;92445.94;;;10.98;59.45
10466;BME280;5280;42.600;23.556;2023-04-01T03:40:49;92453.88;;;10.98;61.66
10466;BME280;5280;42.600;23.556;2023-04-01T03:43:16;92451.94;;;11.00;60.69
10466;BME280;5280;42.600;23.556;2023-04-01T03:45:46;92430.66;;;10.92;60.79
10466;BME280;5280;42.600;23.556;2023-04-01T03:48:13;92460.78;;;11.08;61.37
10466;BME280;5280;42.600;23.556;2023-04-01T03:50:42;92459.38;;;11.14;61.59
10466;BME280;5280;42.600;23.556;2023-04-01T03:53:10;92449.84;;;11.21;61.89
10466;BME280;5280;42.600;23.556;2023-04-01T03:55:37;92454.03;;;11.23;61.97
10466;BME280;5280;42.600;23.556;2023-04-01T03:58:04;92432.50;;;11.18;61.71
10466;BME280;5280;42.600;23.556;2023-04-01T04:00:31;92433.47;;;11.17;60.95
10466;BME280;5280;42.600;23.556;2023-04-01T04:02:58;92441.78;;;11.22;61.94
10466;BME280;5280;42.600;23.556;2023-04-01T04:05:26;92438.63;;;11.37;60.36
10466;BME280;5280;42.600;23.556;2023-04-01T04:07:55;92444.31;;;11.42;58.97
10466;BME280;5280;42.600;23.556;2023-04-01T04:10:22;92430.78;;;11.45;59.43
10466;BME280;5280;42.600;23.556;2023-04-01T04:12:51;92418.78;;;11.50;60.39
10466;BME280;5280;42.600;23.556;2023-04-01T04:15:18;92402.34;;;11.47;61.27
10466;BME280;5280;42.600;23.556;2023-04-01T04:17:45;92374.16;;;11.38;62.41
10466;BME280;5280;42.600;23.556;2023-04-01T04:20:12;92341.53;;;11.29;62.95
10466;BME280;5280;42.600;23.556;2023-04-01T04:22:39;92364.56;;;11.37;62.94
10466;BME280;5280;42.600;23.556;2023-04-01T04:25:08;92370.69;;;11.37;62.50
10466;BME280;5280;42.600;23.556;2023-04-01T04:27:35;92363.34;;;11.31;61.95
10466;BME280;5280;42.600;23.556;2023-04-01T04:30:04;92367.59;;;11.24;62.11
10466;BME280;5280;42.600;23.556;2023-04-01T04:32:31;92356.03;;;11.25;64.81
10466;BME280;5280;42.600;23.556;2023-04-01T04:34:58;92343.69;;;11.16;65.68
10466;BME280;5280;42.600;23.556;2023-04-01T04:37:25;92284.41;;;10.83;65.27
10466;BME280;5280;42.600;23.556;2023-04-01T04:39:52;92338.25;;;11.17;63.25
10466;BME280;5280;42.600;23.556;2023-04-01T04:42:20;92338.19;;;11.09;63.05
10466;BME280;5280;42.600;23.556;2023-04-01T04:44:47;92328.28;;;11.11;64.11
10466;BME280;5280;42.600;23.556;2023-04-01T04:47:13;92324.06;;;11.18;62.94
10466;BME280;5280;42.600;23.556;2023-04-01T04:49:40;92321.19;;;11.12;63.73
10466;BME280;5280;42.600;23.556;2023-04-01T04:52:07;92308.19;;;11.18;63.24
10466;BME280;5280;42.600;23.556;2023-04-01T04:54:37;92305.31;;;11.12;64.01
10466;BME280;5280;42.600;23.556;2023-04-01T04:57:04;92226.94;;;10.67;63.43
10466;BME280;5280;42.600;23.556;2023-04-01T04:59:32;92277.38;;;11.09;65.05
10466;BME280;5280;42.600;23.556;2023-04-01T05:01:59;92273.13;;;11.16;65.41
10466;BME280;5280;42.600;23.556;2023-04-01T05:04:25;92271.31;;;11.17;65.09
10466;BME280;5280;42.600;23.556;2023-04-01T05:06:52;92283.81;;;11.25;65.81
10466;BME280;5280;42.600;23.556;2023-04-01T05:09:19;92281.16;;;11.25;64.92
10466;BME280;5280;42.600;23.556;2023-04-01T05:11:46;92282.81;;;11.26;63.57
10466;BME280;5280;42.600;23.556;2023-04-01T05:14:13;92284.03;;;11.13;60.53
10466;BME280;5280;42.600;23.556;2023-04-01T05:16:42;92282.28;;;11.22;60.26
10466;BME280;5280;42.600;23.556;2023-04-01T05:19:08;92275.19;;;11.22;60.40
10466;BME280;5280;42.600;23.556;2023-04-01T05:21:35;92258.00;;;11.27;60.07
10466;BME280;5280;42.600;23.556;2023-04-01T05:24:02;92265.94;;;11.27;59.67
10466;BME280;5280;42.600;23.556;2023-04-01T05:26:29;92270.16;;;11.37;61.34
10466;BME280;5280;42.600;23.556;2023-04-01T05:28:56;92254.75;;;11.33;62.25
10466;BME280;5280;42.600;23.556;2023-04-01T05:31:23;92246.88;;;11.41;62.16
10466;BME280;5280;42.600;23.556;2023-04-01T05:33:52;92238.13;;;11.40;62.46
10466;BME280;5280;42.600;23.556;2023-04-01T05:36:19;92234.94;;;11.37;63.08
10466;BME280;5280;42.600;23.556;2023-04-01T05:38:46;92184.03;;;10.91;63.73
10466;BME280;5280;42.600;23.556;2023-04-01T05:41:13;92236.06;;;11.08;64.52
10466;BME280;5280;42.600;23.556;2023-04-01T05:43:41;92234.84;;;11.03;63.64
10466;BME280;5280;42.600;23.556;2023-04-01T05:46:07;92206.31;;;10.89;60.29
10466;BME280;5280;42.600;23.556;2023-04-01T05:48:34;92224.28;;;11.03;58.74
10466;BME280;5280;42.600;23.556;2023-04-01T05:51:04;92244.78;;;11.27;56.83
10466;BME280;5280;42.600;23.556;2023-04-01T05:53:31;92238.13;;;11.40;57.04
10466;BME280;5280;42.600;23.556;2023-04-01T05:56:02;92247.31;;;11.54;56.07
10466;BME280;5280;42.600;23.556;2023-04-01T05:58:29;92254.00;;;11.66;55.94
10466;BME280;5280;42.600;23.556;2023-04-01T06:01:01;92244.53;;;11.81;55.92
10466;BME280;5280;42.600;23.556;2023-04-01T06:03:28;92235.75;;;11.81;56.43
10466;BME280;5280;42.600;23.556;2023-04-01T06:05:55;92233.38;;;11.95;56.29
10466;BME280;5280;42.600;23.556;2023-04-01T06:08:24;92232.97;;;12.16;56.20
10466;BME280;5280;42.600;23.556;2023-04-01T06:11:01;92243.28;;;12.27;55.29
10466;BME280;5280;42.600;23.556;2023-04-01T06:13:42;92227.72;;;12.24;56.13
10466;BME280;5280;42.600;23.556;2023-04-01T06:16:21;92225.59;;;12.36;57.39
10466;BME280;5280;42.600;23.556;2023-04-01T06:19:12;92214.69;;;12.39;54.90
10466;BME280;5280;42.600;23.556;2023-04-01T06:25:01;92210.50;;;12.94;53.42
10466;BME280;5280;42.600;23.556;2023-04-01T06:27:45;92200.25;;;13.16;53.76
10466;BME280;5280;42.600;23.556;2023-04-01T06:30:33;92192.97;;;13.18;52.91
10466;BME280;5280;42.600;23.556;2023-04-01T06:33:24;92210.19;;;13.46;53.07
10466;BME280;5280;42.600;23.556;2023-04-01T06:36:19;92182.50;;;13.41;53.41
10466;BME280;5280;42.600;23.556;2023-04-01T06:39:11;92202.25;;;13.54;53.59
10466;BME280;5280;42.600;23.556;2023-04-01T06:45:00;92208.84;;;13.74;52.64
10466;BME280;5280;42.600;23.556;2023-04-01T06:47:41;92197.00;;;13.85;51.99
10466;BME280;5280;42.600;23.556;2023-04-01T06:50:21;92188.06;;;13.94;50.26
10466;BME280;5280;42.600;23.556;2023-04-01T06:52:56;92174.25;;;13.99;49.63
10466;BME280;5280;42.600;23.556;2023-04-01T06:55:28;92170.09;;;13.96;49.42
10466;BME280;5280;42.600;23.556;2023-04-01T06:58:00;92188.53;;;13.98;48.99
10466;BME280;5280;42.600;23.556;2023-04-01T07:00:31;92190.81;;;14.01;49.12
10466;BME280;5280;42.600;23.556;2023-04-01T07:03:06;92196.97;;;14.01;49.34
10466;BME280;5280;42.600;23.556;2023-04-01T07:05:37;92190.38;;;13.89;50.55
10466;BME280;5280;42.600;23.556;2023-04-01T07:08:08;92188.84;;;13.95;49.86
10466;BME280;5280;42.600;23.556;2023-04-01T07:10:43;92144.50;;;13.64;50.48
10466;BME280;5280;42.600;23.556;2023-04-01T07:13:18;92183.06;;;13.91;50.60
10466;BME280;5280;42.600;23.556;2023-04-01T07:15:55;92171.28;;;13.94;49.21
10466;BME280;5280;42.600;23.556;2023-04-01T07:18:29;92168.94;;;13.99;49.21
10466;BME280;5280;42.600;23.556;2023-04-01T07:20:57;92174.53;;;14.12;50.71
10466;BME280;5280;42.600;23.556;2023-04-01T07:23:29;92168.22;;;14.05;49.59
10466;BME280;5280;42.600;23.556;2023-04-01T07:26:00;92152.28;;;14.05;50.63
10466;BME280;5280;42.600;23.556;2023-04-01T07:28:31;92176.81;;;14.23;50.75
10466;BME280;5280;42.600;23.556;2023-04-01T07:31:07;92169.63;;;14.32;50.02
10466;BME280;5280;42.600;23.556;2023-04-01T07:33:43;92142.44;;;14.21;48.32
10466;BME280;5280;42.600;23.556;2023-04-01T07:36:20;92158.66;;;14.43;49.66
10466;BME280;5280;42.600;23.556;2023-04-01T07:38:57;92159.63;;;14.42;45.57
10466;BME280;5280;42.600;23.556;2023-04-01T07:41:34;92155.41;;;14.55;46.38
10466;BME280;5280;42.600;23.556;2023-04-01T07:44:12;92166.66;;;14.65;47.32
10466;BME280;5280;42.600;23.556;2023-04-01T07:46:59;92163.66;;;14.69;48.20
10466;BME280;5280;42.600;23.556;2023-04-01T07:49:35;92179.94;;;14.65;47.27
10466;BME280;5280;42.600;23.556;2023-04-01T07:52:13;92084.44;;;14.25;46.40
10466;BME280;5280;42.600;23.556;2023-04-01T07:54:47;92153.63;;;14.79;43.93
10466;BME280;5280;42.600;23.556;2023-04-01T07:57:20;92151.56;;;14.89;42.79
10466;BME280;5280;42.600;23.556;2023-04-01T07:59:58;92162.78;;;14.99;42.07
10466;BME280;5280;42.600;23.556;2023-04-01T08:02:37;92145.25;;;15.04;43.72
10466;BME280;5280;42.600;23.556;2023-04-01T08:05:19;92152.38;;;15.12;40.49
10466;BME280;5280;42.600;23.556;2023-04-01T08:07:57;92127.75;;;15.10;41.95
10466;BME280;5280;42.600;23.556;2023-04-01T08:10:30;92127.88;;;15.17;42.07
10466;BME280;5280;42.600;23.556;2023-04-01T08:13:06;92132.16;;;15.40;41.90
10466;BME280;5280;42.600;23.556;2023-04-01T08:15:43;92138.13;;;15.42;43.78
10466;BME280;5280;42.600;23.556;2023-04-01T08:18:20;92127.41;;;15.50;41.74
10466;BME280;5280;42.600;23.556;2023-04-01T08:20:57;92126.03;;;15.55;41.87
10466;BME280;5280;42.600;23.556;2023-04-01T08:23:29;92136.19;;;15.74;42.00
10466;BME280;5280;42.600;23.556;2023-04-01T08:26:02;92139.66;;;15.74;40.44
10466;BME280;5280;42.600;23.556;2023-04-01T08:28:34;92119.94;;;15.83;40.70
10466;BME280;5280;42.600;23.556;2023-04-01T08:31:08;92119.09;;;15.83;41.82
10466;BME280;5280;42.600;23.556;2023-04-01T08:33:38;92119.44;;;16.09;43.19
10466;BME280;5280;42.600;23.556;2023-04-01T08:36:09;92095.28;;;16.11;40.11
10466;BME280;5280;42.600;23.556;2023-04-01T08:38:40;92063.97;;;15.98;40.10
10466;BME280;5280;42.600;23.556;2023-04-01T08:41:31;92097.06;;;16.40;41.06
10466;BME280;5280;42.600;23.556;2023-04-01T08:44:33;92080.06;;;16.41;41.06
10466;BME280;5280;42.600;23.556;2023-04-01T08:47:20;92048.38;;;16.31;41.86
10466;BME280;5280;42.600;23.556;2023-04-01T08:50:06;92061.06;;;16.65;41.88
10466;BME280;5280;42.600;23.556;2023-04-01T08:52:52;92060.97;;;16.73;41.05
10466;BME280;5280;42.600;23.556;2023-04-01T08:55:36;92043.91;;;16.74;41.77
10466;BME280;5280;42.600;23.556;2023-04-01T08:58:33;92046.03;;;16.78;42.61
10466;BME280;5280;42.600;23.556;2023-04-01T09:01:13;92042.47;;;16.93;41.87
10466;BME280;5280;42.600;23.556;2023-04-01T09:03:57;92045.72;;;16.88;41.55
10466;BME280;5280;42.600;23.556;2023-04-01T09:06:33;92010.22;;;16.94;42.05
10466;BME280;5280;42.600;23.556;2023-04-01T09:12:39;92029.66;;;17.37;40.40
10466;BME280;5280;42.600;23.556;2023-04-01T09:15:36;92025.59;;;17.41;39.75
10466;BME280;5280;42.600;23.556;2023-04-01T09:21:18;92033.50;;;17.56;38.01
10466;BME280;5280;42.600;23.556;2023-04-01T09:24:08;92027.78;;;17.59;36.20
10466;BME280;5280;42.600;23.556;2023-04-01T09:26:58;92018.09;;;17.58;37.38
10466;BME280;5280;42.600;23.556;2023-04-01T09:29:48;92017.56;;;17.69;37.39
10466;BME280;5280;42.600;23.556;2023-04-01T09:32:38;92017.56;;;17.69;36.73
10466;BME280;5280;42.600;23.556;2023-04-01T09:35:21;92017.66;;;17.54;37.05
10466;BME280;5280;42.600;23.556;2023-04-01T09:37:57;92015.47;;;17.64;37.66
10466;BME280;5280;42.600;23.556;2023-04-01T09:40:39;92008.94;;;17.67;40.11
10466;BME280;5280;42.600;23.556;2023-04-01T09:43:25;92011.16;;;17.63;44.06
10466;BME280;5280;42.600;23.556;2023-04-01T09:46:15;92005.19;;;17.34;46.12
10466;BME280;5280;42.600;23.556;2023-04-01T09:49:25;92008.59;;;17.21;44.33
10466;BME280;5280;42.600;23.556;2023-04-01T09:52:08;91997.38;;;17.04;46.38
10466;BME280;5280;42.600;23.556;2023-04-01T09:54:51;92004.38;;;17.05;46.58
10466;BME280;5280;42.600;23.556;2023-04-01T10:00:50;91996.19;;;16.86;47.01
10466;BME280;5280;42.600;23.556;2023-04-01T10:03:58;91991.84;;;16.78;46.71
10466;BME280;5280;42.600;23.556;2023-04-01T10:19:27;91980.19;;;16.86;45.55
10466;BME280;5280;42.600;23.556;2023-04-01T10:22:16;91965.84;;;16.87;44.96
10466;BME280;5280;42.600;23.556;2023-04-01T10:28:15;91964.72;;;17.02;44.95
10466;BME280;5280;42.600;23.556;2023-04-01T10:31:12;91970.06;;;17.02;46.39
10466;BME280;5280;42.600;23.556;2023-04-01T10:34:03;91966.56;;;17.02;45.82
10466;BME280;5280;42.600;23.556;2023-04-01T10:36:51;91944.41;;;17.01;45.41
10466;BME280;5280;42.600;23.556;2023-04-01T10:39:54;91929.69;;;17.12;45.87
10466;BME280;5280;42.600;23.556;2023-04-01T10:42:45;91924.34;;;17.12;45.29
10466;BME280;5280;42.600;23.556;2023-04-01T10:45:53;91943.84;;;17.12;46.43
10466;BME280;5280;42.600;23.556;2023-04-01T10:51:50;91929.28;;;17.15;46.85
10466;BME280;5280;42.600;23.556;2023-04-01T10:54:40;91920.22;;;17.09;46.57
10466;BME280;5280;42.600;23.556;2023-04-01T10:57:20;91928.78;;;17.33;47.05
10466;BME280;5280;42.600;23.556;2023-04-01T11:00:36;91915.25;;;17.41;46.89
10466;BME280;5280;42.600;23.556;2023-04-01T11:15:48;91916.28;;;17.40;47.57
10466;BME280;5280;42.600;23.556;2023-04-01T11:18:59;91899.38;;;17.26;47.42
10466;BME280;5280;42.600;23.556;2023-04-01T11:25:01;91899.41;;;17.39;47.99
10466;BME280;5280;42.600;23.556;2023-04-01T11:30:49;91883.16;;;17.34;46.89
10466;BME280;5280;42.600;23.556;2023-04-01T11:33:26;91874.75;;;17.31;45.90
10466;BME280;5280;42.600;23.556;2023-04-01T11:36:11;91878.84;;;17.27;47.48
10466;BME280;5280;42.600;23.556;2023-04-01T11:39:11;91872.41;;;17.14;46.19
10466;BME280;5280;42.600;23.556;2023-04-01T11:41:51;91889.16;;;17.02;50.11
10466;BME280;5280;42.600;23.556;2023-04-01T11:44:25;91877.53;;;16.82;49.53
10466;BME280;5280;42.600;23.556;2023-04-01T11:49:55;91923.25;;;16.72;49.82
10466;BME280;5280;42.600;23.556;2023-04-01T11:55:31;91921.72;;;16.42;49.78
10466;BME280;5280;42.600;23.556;2023-04-01T11:58:36;91954.88;;;16.32;49.74
10466;BME280;5280;42.600;23.556;2023-04-01T12:01:25;91981.31;;;16.34;49.11
10466;BME280;5280;42.600;23.556;2023-04-01T12:04:16;92038.59;;;16.02;55.11
10466;BME280;5280;42.600;23.556;2023-04-01T12:06:50;92065.75;;;15.24;62.05
10466;BME280;5280;42.600;23.556;2023-04-01T12:09:25;92104.84;;;14.86;69.90
10466;BME280;5280;42.600;23.556;2023-04-01T12:12:11;92133.69;;;14.05;78.70
10466;BME280;5280;42.600;23.556;2023-04-01T12:14:45;92126.81;;;13.24;87.04
10466;BME280;5280;42.600;23.556;2023-04-01T12:17:26;92115.50;;;12.66;93.45
10466;BME280;5280;42.600;23.556;2023-04-01T12:19:58;92160.41;;;12.59;98.95
10466;BME280;5280;42.600;23.556;2023-04-01T12:22:46;92156.75;;;12.44;100.00
10466;BME280;5280;42.600;23.556;2023-04-01T12:25:31;92166.66;;;12.34;100.00
10466;BME280;5280;42.600;23.556;2023-04-01T12:28:13;92145.63;;;11.82;100.00
10466;BME280;5280;42.600;23.556;2023-04-01T12:30:58;92181.59;;;12.01;100.00
10466;BME280;5280;42.600;23.556;2023-04-01T12:33:45;92160.53;;;11.91;100.00
10466;BME280;5280;42.600;23.556;2023-04-01T12:36:28;92170.38;;;12.07;100.00
10466;BME280;5280;42.600;23.556;2023-04-01T12:39:14;92142.91;;;12.08;100.00
10466;BME280;5280;42.600;23.556;2023-04-01T12:41:50;92151.88;;;12.15;100.00
10466;BME280;5280;42.600;23.556;2023-04-01T12:44:33;92159.00;;;12.31;100.00
10466;BME280;5280;42.600;23.556;2023-04-01T12:47:28;92121.38;;;12.11;100.00
10466;BME280;5280;42.600;23.556;2023-04-01T12:50:15;92156.59;;;12.54;100.00
10466;BME280;5280;42.600;23.556;2023-04-01T12:52:55;92166.06;;;12.64;100.00
10466;BME280;5280;42.600;23.556;2023-04-01T12:55:35;92174.69;;;12.74;100.00
10466;BME280;5280;42.600;23.556;2023-04-01T12:58:24;92175.25;;;12.36;100.00
10466;BME280;5280;42.600;23.556;2023-04-01T13:01:19;92145.47;;;12.34;100.00
10466;BME280;5280;42.600;23.556;2023-04-01T13:04:16;92152.38;;;12.27;100.00
10466;BME280;5280;42.600;23.556;2023-04-01T13:07:04;92168.63;;;12.24;100.00
10466;BME280;5280;42.600;23.556;2023-04-01T13:09:44;92171.56;;;12.21;100.00
10466;BME280;5280;42.600;23.556;2023-04-01T13:12:36;92161.63;;;12.15;100.00
10466;BME280;5280;42.600;23.556;2023-04-01T13:15:12;92152.16;;;12.04;100.00
10466;BME280;5280;42.600;23.556;2023-04-01T13:17:46;92151.63;;;12.00;100.00
10466;BME280;5280;42.600;23.556;2023-04-01T13:20:26;92146.06;;;12.12;100.00
10466;BME280;5280;42.600;23.556;2023-04-01T13:23:09;92139.97;;;12.19;100.00
10466;BME280;5280;42.600;23.556;2023-04-01T13:25:43;92130.00;;;12.13;100.00
10466;BME280;5280;42.600;23.556;2023-04-01T13:28:18;92144.09;;;12.22;100.00
10466;BME280;5280;42.600;23.556;2023-04-01T13:30:50;92121.09;;;12.22;100.00
10466;BME280;5280;42.600;23.556;2023-04-01T13:33:26;92087.97;;;12.10;100.00
10466;BME280;5280;42.600;23.556;2023-04-01T13:36:10;92074.97;;;11.83;100.00
10466;BME280;5280;42.600;23.556;2023-04-01T13:41:56;92043.41;;;11.89;100.00
10466;BME280;5280;42.600;23.556;2023-04-01T13:44:31;92008.16;;;11.97;100.00
10466;BME280;5280;42.600;23.556;2023-04-01T13:53:01;91993.44;;;12.02;100.00
10466;BME280;5280;42.600;23.556;2023-04-01T13:55:41;91982.22;;;12.08;100.00
10466;BME280;5280;42.600;23.556;2023-04-01T13:58:40;91996.78;;;12.04;100.00
10466;BME280;5280;42.600;23.556;2023-04-01T14:01:13;91996.59;;;12.06;100.00
10466;BME280;5280;42.600;23.556;2023-04-01T14:06:59;92001.88;;;11.90;100.00
10466;BME280;5280;42.600;23.556;2023-04-01T14:09:45;91989.63;;;11.89;100.00
10466;BME280;5280;42.600;23.556;2023-04-01T14:12:28;91999.72;;;11.85;100.00
10466;BME280;5280;42.600;23.556;2023-04-01T14:15:14;91989.00;;;11.95;100.00
10466;BME280;5280;42.600;23.556;2023-04-01T14:17:57;91978.56;;;11.85;100.00
10466;BME280;5280;42.600;23.556;2023-04-01T14:20:31;91996.22;;;11.77;100.00
10466;BME280;5280;42.600;23.556;2023-04-01T14:26:20;91983.97;;;11.76;100.00
10466;BME280;5280;42.600;23.556;2023-04-01T14:28:54;91970.84;;;11.66;100.00
10466;BME280;5280;42.600;23.556;2023-04-01T14:31:36;91947.38;;;11.55;100.00
10466;BME280;5280;42.600;23.556;2023-04-01T14:34:16;91981.50;;;11.82;100.00
10466;BME280;5280;42.600;23.556;2023-04-01T14:36:53;92016.25;;;11.79;100.00
10466;BME280;5280;42.600;23.556;2023-04-01T14:43:07;91979.00;;;11.73;100.00
10466;BME280;5280;42.600;23.556;2023-04-01T14:45:46;91979.13;;;11.55;100.00
10466;BME280;5280;42.600;23.556;2023-04-01T14:48:25;91971.69;;;11.58;100.00
10466;BME280;5280;42.600;23.556;2023-04-01T14:51:03;91970.50;;;11.61;100.00
10466;BME280;5280;42.600;23.556;2023-04-01T14:53:38;91942.31;;;11.19;100.00
10466;BME280;5280;42.600;23.556;2023-04-01T14:56:10;91970.16;;;11.40;100.00
10466;BME280;5280;42.600;23.556;2023-04-01T14:58:46;92007.53;;;11.45;100.00
10466;BME280;5280;42.600;23.556;2023-04-01T15:01:30;91987.00;;;11.39;100.00
10466;BME280;5280;42.600;23.556;2023-04-01T15:04:24;91937.88;;;11.28;100.00